Kinrikimaru No.5 — JL6558 — position and weather

sailwx.info

Track history (hours):
 
Tides and Currents Weather Stations Pressure Air Temp Water Temp Dewpoint Dewpoint Depression Visibility Wind Speed Wind Dir Waves Ship Positions

Kinrikimaru No.5

Last reported at 2018-Jan-21 23:55 UTC. Time now 2018-Jan-22 00:20 UTC.
Position N 35°28' E 140°01'.

Length 75 m; draft 3.8 m.

Type: Cargo ship. MMSI: 431501278.

Date/timePositionNaut miles runAvg speedWind from/ knotsBaromVisibWave heightAir tempDewpointWater temp
2018-Jan-21 23:55N 35°28' E 140°01'0 0.0
2018-Jan-21 23:16N 35°28' E 140°01'0 0.0
2018-Jan-21 22:49N 35°28' E 140°01'0 0.0
2018-Jan-21 22:30N 35°28' E 140°01'3 5.0
2018-Jan-21 22:00N 35°30' E 139°59'2 3.0
2018-Jan-21 21:30N 35°30' E 139°57'5 9.7
2018-Jan-21 21:00N 35°28' E 139°51'510.6
2018-Jan-21 20:30N 35°25' E 139°47'611.2
2018-Jan-21 20:00N 35°19' E 139°44'611.2
2018-Jan-21 19:30N 35°14' E 139°47'510.8
2018-Jan-21 19:00N 35°09' E 139°46'510.1
2018-Jan-21 18:30N 35°04' E 139°43'510.2
2018-Jan-21 18:00N 35°01' E 139°38'510.0
2018-Jan-21 17:30N 34°58' E 139°33'510.6
2018-Jan-21 17:00N 34°55' E 139°28'1310.9
2018-Jan-21 15:49N 34°47' E 139°15'411.3
2018-Jan-21 15:30N 34°45' E 139°12'611.6
2018-Jan-21 14:59N 34°41' E 139°06'911.2
2018-Jan-21 14:12N 34°36' E 138°58'412.3
2018-Jan-21 13:51N 34°34' E 138°53'511.2
2018-Jan-21 13:26N 34°34' E 138°47'1210.6
2018-Jan-21 12:19N 34°33' E 138°33'811.1
2018-Jan-21 11:37N 34°33' E 138°24'411.6
2018-Jan-21 11:17N 34°33' E 138°19'311.5
2018-Jan-21 11:00N 34°33' E 138°15'1011.6
2018-Jan-21 10:08N 34°33' E 138°03'5111.4
2018-Jan-21 05:39N 34°33' E 137°01'211.8
2018-Jan-21 05:30N 34°34' E 136°59'611.3
2018-Jan-21 05:00N 34°38' E 136°54'611.6
2018-Jan-21 04:30N 34°42' E 136°49'612.2
2018-Jan-21 04:00N 34°47' E 136°46'612.0
2018-Jan-21 03:30N 34°53' E 136°46'611.2
2018-Jan-21 03:00N 34°59' E 136°48'611.5
2018-Jan-21 02:30N 35°04' E 136°52'1 2.6
2018-Jan-21 01:56N 35°04' E 136°53'0 0.0
2018-Jan-21 01:26N 35°04' E 136°53'0 0.0
2018-Jan-21 00:56N 35°04' E 136°53'0 0.0
2018-Jan-21 00:29N 35°04' E 136°53'0 0.0
2018-Jan-20 23:56N 35°04' E 136°53'0 0.0
2018-Jan-20 23:29N 35°04' E 136°53'0 0.0
2018-Jan-20 22:59N 35°04' E 136°53'0 0.0
2018-Jan-20 22:29N 35°04' E 136°53'0 0.0
2018-Jan-20 21:59N 35°04' E 136°53'0 0.0
2018-Jan-20 21:29N 35°04' E 136°53'0 0.8
2018-Jan-20 20:57N 35°05' E 136°53'0 0.0
2018-Jan-20 20:30N 35°05' E 136°53'0 0.0
2018-Jan-20 19:57N 35°05' E 136°53'0 0.0
2018-Jan-20 19:27N 35°05' E 136°53'0 0.0
2018-Jan-20 19:00N 35°05' E 136°53'0 0.0
2018-Jan-20 18:30N 35°05' E 136°53'0 0.0
2018-Jan-20 18:00N 35°05' E 136°53'0 0.0
2018-Jan-20 17:30N 35°05' E 136°53'0 0.0
2018-Jan-20 17:00N 35°05' E 136°53'0 0.0
2018-Jan-20 16:30N 35°05' E 136°53'0 0.0
2018-Jan-20 16:00N 35°05' E 136°53'0 0.0
2018-Jan-20 15:30N 35°05' E 136°53'2 3.7
2018-Jan-20 15:01N 35°03' E 136°52'611.6
2018-Jan-20 14:31N 34°58' E 136°48'611.3
2018-Jan-20 14:01N 34°53' E 136°47'610.9
2018-Jan-20 13:28N 34°47' E 136°48'7610.2
2018-Jan-20 06:03N 34°37' E 138°19'111.9
2018-Jan-20 05:57N 34°38' E 138°20'612.3
2018-Jan-20 05:29N 34°43' E 138°23'612.4
2018-Jan-20 05:00N 34°48' E 138°26'713.1
2018-Jan-20 04:31N 34°54' E 138°30'713.2
2018-Jan-20 04:01N 35°00' E 138°33'3 5.5
2018-Jan-20 03:31N 34°60' E 138°30'0 0.0
2018-Jan-20 03:00N 34°60' E 138°30'0 0.0
2018-Jan-20 02:31N 34°60' E 138°30'0 0.0
2018-Jan-20 02:01N 34°60' E 138°30'0 0.0
2018-Jan-20 01:30N 34°60' E 138°30'0 0.0
2018-Jan-20 01:00N 34°60' E 138°30'0 0.0
2018-Jan-20 00:30N 34°60' E 138°30'0 0.0
2018-Jan-20 00:00N 34°60' E 138°30'0 0.0
2018-Jan-19 23:30N 34°60' E 138°30'0 0.0
2018-Jan-19 23:00N 34°60' E 138°30'0 0.0
2018-Jan-19 22:30N 34°60' E 138°30'2 3.5
2018-Jan-19 22:00N 35°01' E 138°30'4 7.5
2018-Jan-19 21:31N 35°02' E 138°35'5 9.1
2018-Jan-19 21:00N 34°58' E 138°37'611.2
2018-Jan-19 20:30N 34°52' E 138°38'611.7
2018-Jan-19 20:00N 34°46' E 138°40'611.8
2018-Jan-19 19:28N 34°40' E 138°43'611.0
2018-Jan-19 18:57N 34°36' E 138°47'610.8
2018-Jan-19 18:22N 34°36' E 138°54'411.3
2018-Jan-19 17:59N 34°38' E 138°59'612.0
2018-Jan-19 17:27N 34°43' E 139°04'29 9.9
2018-Jan-19 14:31N 34°57' E 139°35'011.1
2018-Jan-19 14:29N 34°57' E 139°35'511.0
2018-Jan-19 14:00N 34°59' E 139°41'  
Track history (hours):
 
Tides and Currents Weather Stations Pressure Air Temp Water Temp Dewpoint Dewpoint Depression Visibility Wind Speed Wind Dir Waves Ship Positions

Kinrikimaru No.5

Last reported at 2018-Jan-21 23:55 UTC. Time now 2018-Jan-22 00:20 UTC.
Position N 35°28' E 140°01'.

Length 75 m; draft 3.8 m.

Type: Cargo ship. MMSI: 431501278.

Date/timePositionNaut miles runAvg speedWind from/ knotsBaromVisibWave heightAir tempDewpointWater temp
2018-Jan-21 23:55N 35°28' E 140°01'0 0.0
2018-Jan-21 23:16N 35°28' E 140°01'0 0.0
2018-Jan-21 22:49N 35°28' E 140°01'0 0.0
2018-Jan-21 22:30N 35°28' E 140°01'3 5.0
2018-Jan-21 22:00N 35°30' E 139°59'2 3.0
2018-Jan-21 21:30N 35°30' E 139°57'5 9.7
2018-Jan-21 21:00N 35°28' E 139°51'510.6
2018-Jan-21 20:30N 35°25' E 139°47'611.2
2018-Jan-21 20:00N 35°19' E 139°44'611.2
2018-Jan-21 19:30N 35°14' E 139°47'510.8
2018-Jan-21 19:00N 35°09' E 139°46'510.1
2018-Jan-21 18:30N 35°04' E 139°43'510.2
2018-Jan-21 18:00N 35°01' E 139°38'510.0
2018-Jan-21 17:30N 34°58' E 139°33'510.6
2018-Jan-21 17:00N 34°55' E 139°28'1310.9
2018-Jan-21 15:49N 34°47' E 139°15'411.3
2018-Jan-21 15:30N 34°45' E 139°12'611.6
2018-Jan-21 14:59N 34°41' E 139°06'911.2
2018-Jan-21 14:12N 34°36' E 138°58'412.3
2018-Jan-21 13:51N 34°34' E 138°53'511.2
2018-Jan-21 13:26N 34°34' E 138°47'1210.6
2018-Jan-21 12:19N 34°33' E 138°33'811.1
2018-Jan-21 11:37N 34°33' E 138°24'411.6
2018-Jan-21 11:17N 34°33' E 138°19'311.5
2018-Jan-21 11:00N 34°33' E 138°15'1011.6
2018-Jan-21 10:08N 34°33' E 138°03'5111.4
2018-Jan-21 05:39N 34°33' E 137°01'211.8
2018-Jan-21 05:30N 34°34' E 136°59'611.3
2018-Jan-21 05:00N 34°38' E 136°54'611.6
2018-Jan-21 04:30N 34°42' E 136°49'612.2
2018-Jan-21 04:00N 34°47' E 136°46'612.0
2018-Jan-21 03:30N 34°53' E 136°46'611.2
2018-Jan-21 03:00N 34°59' E 136°48'611.5
2018-Jan-21 02:30N 35°04' E 136°52'1 2.6
2018-Jan-21 01:56N 35°04' E 136°53'0 0.0
2018-Jan-21 01:26N 35°04' E 136°53'0 0.0
2018-Jan-21 00:56N 35°04' E 136°53'0 0.0
2018-Jan-21 00:29N 35°04' E 136°53'0 0.0
2018-Jan-20 23:56N 35°04' E 136°53'0 0.0
2018-Jan-20 23:29N 35°04' E 136°53'0 0.0
2018-Jan-20 22:59N 35°04' E 136°53'0 0.0
2018-Jan-20 22:29N 35°04' E 136°53'0 0.0
2018-Jan-20 21:59N 35°04' E 136°53'0 0.0
2018-Jan-20 21:29N 35°04' E 136°53'0 0.8
2018-Jan-20 20:57N 35°05' E 136°53'0 0.0
2018-Jan-20 20:30N 35°05' E 136°53'0 0.0
2018-Jan-20 19:57N 35°05' E 136°53'0 0.0
2018-Jan-20 19:27N 35°05' E 136°53'0 0.0
2018-Jan-20 19:00N 35°05' E 136°53'0 0.0
2018-Jan-20 18:30N 35°05' E 136°53'0 0.0
2018-Jan-20 18:00N 35°05' E 136°53'0 0.0
2018-Jan-20 17:30N 35°05' E 136°53'0 0.0
2018-Jan-20 17:00N 35°05' E 136°53'0 0.0
2018-Jan-20 16:30N 35°05' E 136°53'0 0.0
2018-Jan-20 16:00N 35°05' E 136°53'0 0.0
2018-Jan-20 15:30N 35°05' E 136°53'2 3.7
2018-Jan-20 15:01N 35°03' E 136°52'611.6
2018-Jan-20 14:31N 34°58' E 136°48'611.3
2018-Jan-20 14:01N 34°53' E 136°47'610.9
2018-Jan-20 13:28N 34°47' E 136°48'7610.2
2018-Jan-20 06:03N 34°37' E 138°19'111.9
2018-Jan-20 05:57N 34°38' E 138°20'612.3
2018-Jan-20 05:29N 34°43' E 138°23'612.4
2018-Jan-20 05:00N 34°48' E 138°26'713.1
2018-Jan-20 04:31N 34°54' E 138°30'713.2
2018-Jan-20 04:01N 35°00' E 138°33'3 5.5
2018-Jan-20 03:31N 34°60' E 138°30'0 0.0
2018-Jan-20 03:00N 34°60' E 138°30'0 0.0
2018-Jan-20 02:31N 34°60' E 138°30'0 0.0
2018-Jan-20 02:01N 34°60' E 138°30'0 0.0
2018-Jan-20 01:30N 34°60' E 138°30'0 0.0
2018-Jan-20 01:00N 34°60' E 138°30'0 0.0
2018-Jan-20 00:30N 34°60' E 138°30'0 0.0
2018-Jan-20 00:00N 34°60' E 138°30'0 0.0
2018-Jan-19 23:30N 34°60' E 138°30'0 0.0
2018-Jan-19 23:00N 34°60' E 138°30'0 0.0
2018-Jan-19 22:30N 34°60' E 138°30'2 3.5
2018-Jan-19 22:00N 35°01' E 138°30'4 7.5
2018-Jan-19 21:31N 35°02' E 138°35'5 9.1
2018-Jan-19 21:00N 34°58' E 138°37'611.2
2018-Jan-19 20:30N 34°52' E 138°38'611.7
2018-Jan-19 20:00N 34°46' E 138°40'611.8
2018-Jan-19 19:28N 34°40' E 138°43'611.0
2018-Jan-19 18:57N 34°36' E 138°47'610.8
2018-Jan-19 18:22N 34°36' E 138°54'411.3
2018-Jan-19 17:59N 34°38' E 138°59'612.0
2018-Jan-19 17:27N 34°43' E 139°04'29 9.9
2018-Jan-19 14:31N 34°57' E 139°35'011.1
2018-Jan-19 14:29N 34°57' E 139°35'511.0
2018-Jan-19 14:00N 34°59' E 139°41'  

Dump ship's entire track history